Time;durP1;ratioP1;P1;durP2;ratioP2;P2;SDS_P1;SDS_P2;PMS_P1;PMS_P2;Temp;Humidity;BMP_temperature;BMP_pressure;BME280_temperature;BME280_humidity;BME280_pressure;Samples;Min_cycle;Max_cycle;Signal;HPM_P1;HPM_P2
2022/07/21 00:00:22;;;;;;;;;;;;;;;21.55;82.05;100114.13;1083874;54;19947;-74
2022/07/21 00:01:24;;;;;;;;;;;;;;;21.44;82.01;100112.91;1083628;54;20464;-74
2022/07/21 00:02:27;;;;;;;;;;;;;;;21.46;82.40;100115.41;1084021;54;19942;-76
2022/07/21 00:03:28;;;;;;;;;;;;;;;21.46;81.88;100115.41;1084215;54;19939;-73
2022/07/21 00:04:32;;;;;;;;;;;;;;;21.44;82.51;100120.25;1085413;54;20433;-75
2022/07/21 00:05:34;;;;;;;;;;;;;;;21.44;82.73;100115.63;1085385;54;19998;-73
2022/07/21 00:06:38;;;;;;;;;;;;;;;21.50;82.59;100114.75;1085634;54;19938;-74
2022/07/21 00:07:39;;;;;;;;;;;;;;;21.41;82.61;100115.22;1085065;54;20428;-76
2022/07/21 00:08:43;;;;;;;;;;;;;;;21.40;82.19;100114.38;1086834;39;20364;-76
2022/07/21 00:09:44;;;;;;;;;;;;;;;21.31;82.44;100115.66;1084090;54;20690;-74
2022/07/21 00:10:47;;;;;;;;;;;;;;;21.33;82.51;100122.59;1084720;46;19954;-75
2022/07/21 00:11:51;;;;;;;;;;;;;;;21.38;82.12;100129.25;1083800;54;19950;-73
2022/07/21 00:12:53;;;;;;;;;;;;;;;21.42;82.00;100125.88;1084628;54;19946;-73
2022/07/21 00:14:00;;;;;;;;;;;;;;;21.29;82.19;100120.50;1084521;54;19947;-74
2022/07/21 00:15:01;;;;;;;;;;;;;;;21.31;82.42;100124.69;1084528;54;19943;-75
2022/07/21 00:16:05;;;;;;;;;;;;;;;21.36;82.67;100124.03;1084660;54;19942;-74
2022/07/21 00:17:06;;;;;;;;;;;;;;;21.42;82.54;100115.00;1084472;54;19939;-75
2022/07/21 00:18:10;;;;;;;;;;;;;;;21.45;81.85;100119.19;1084503;54;20437;-75
2022/07/21 00:19:12;;;;;;;;;;;;;;;21.43;81.77;100113.13;1084393;54;19951;-74
2022/07/21 00:20:16;;;;;;;;;;;;;;;21.44;81.54;100122.97;1084442;54;19969;-74
2022/07/21 00:21:17;;;;;;;;;;;;;;;21.48;81.66;100126.91;1084427;54;19947;-76
2022/07/21 00:22:21;;;;;;;;;;;;;;;21.61;80.47;100116.03;1084358;54;19951;-76
2022/07/21 00:23:25;;;;;;;;;;;;;;;21.71;79.87;100114.72;1084452;54;19943;-76
2022/07/21 00:24:26;;;;;;;;;;;;;;;21.79;79.78;100114.47;1086115;54;19939;-73
2022/07/21 00:25:30;;;;;;;;;;;;;;;21.84;79.15;100106.47;1086430;54;19954;-76
2022/07/21 00:26:31;;;;;;;;;;;;;;;21.75;79.73;100113.22;1084797;54;19981;-74
2022/07/21 00:27:35;;;;;;;;;;;;;;;21.65;80.28;100103.66;1083896;54;19981;-74
2022/07/21 00:28:39;;;;;;;;;;;;;;;21.69;79.96;100103.22;1084022;39;20239;-73
2022/07/21 00:29:42;;;;;;;;;;;;;;;21.59;80.45;100098.22;1083237;39;20361;-73
2022/07/21 00:30:46;;;;;;;;;;;;;;;21.62;80.22;100106.81;1083697;54;20588;-76
2022/07/21 00:31:48;;;;;;;;;;;;;;;21.62;80.58;100103.25;1084177;39;20317;-73
2022/07/21 00:32:51;;;;;;;;;;;;;;;21.46;81.06;100102.66;1083723;54;20567;-72
2022/07/21 00:33:52;;;;;;;;;;;;;;;21.38;81.56;100113.78;1084090;54;20759;-74
2022/07/21 00:34:56;;;;;;;;;;;;;;;21.38;81.59;100104.78;1084015;54;19961;-74
2022/07/21 00:35:57;;;;;;;;;;;;;;;21.35;81.38;100104.16;1084593;54;19954;-73
2022/07/21 00:37:01;;;;;;;;;;;;;;;21.29;81.48;100099.59;1084665;54;19954;-74
2022/07/21 00:38:05;;;;;;;;;;;;;;;21.27;81.58;100098.13;1083495;54;19946;-75
2022/07/21 00:39:06;;;;;;;;;;;;;;;21.34;81.17;100102.50;1083484;54;20002;-75
2022/07/21 00:40:13;;;;;;;;;;;;;;;21.31;81.29;100102.94;1083078;54;19947;-75
2022/07/21 00:41:14;;;;;;;;;;;;;;;21.30;81.08;100098.53;1083291;54;20512;-75
2022/07/21 00:42:22;;;;;;;;;;;;;;;21.26;80.33;100094.56;1083933;54;19951;-74
2022/07/21 00:43:26;;;;;;;;;;;;;;;21.33;80.22;100095.41;1083091;54;19998;-74
2022/07/21 00:44:27;;;;;;;;;;;;;;;21.31;80.12;100102.06;1082820;54;19946;-74
2022/07/21 00:45:34;;;;;;;;;;;;;;;21.30;80.23;100101.25;1082640;54;20179;-73
2022/07/21 00:46:35;;;;;;;;;;;;;;;21.29;80.26;100099.59;1083184;54;19939;-74
2022/07/21 00:47:39;;;;;;;;;;;;;;;21.28;80.05;100106.06;1082986;54;19947;-74
2022/07/21 00:48:40;;;;;;;;;;;;;;;21.25;80.63;100102.94;1083062;54;19946;-74
2022/07/21 00:49:45;;;;;;;;;;;;;;;21.26;80.63;100100.00;1083794;47;20734;-73
2022/07/21 00:50:46;;;;;;;;;;;;;;;21.24;81.12;100104.00;1084142;54;19981;-72
2022/07/21 00:51:50;;;;;;;;;;;;;;;21.24;80.86;100110.28;1084523;54;19939;-72
2022/07/21 02:53:19;;;;;;;;;;;;;;;20.97;79.48;100189.13;1084197;54;21303;-74
2022/07/21 02:54:20;;;;;;;;;;;;;;;21.03;78.98;100182.84;1084729;46;19970;-73
2022/07/21 02:55:24;;;;;;;;;;;;;;;20.97;79.42;100191.81;1084685;54;19954;-75
2022/07/21 02:56:25;;;;;;;;;;;;;;;21.09;78.43;100173.03;1083949;54;19981;-73
2022/07/21 02:57:29;;;;;;;;;;;;;;;21.06;78.76;100181.59;1084479;54;19946;-73
2022/07/21 02:58:30;;;;;;;;;;;;;;;21.09;78.12;100183.03;1084464;54;19951;-74
2022/07/21 02:59:34;;;;;;;;;;;;;;;21.03;78.76;100193.72;1085661;39;20380;-75
2022/07/21 03:00:35;;;;;;;;;;;;;;;21.03;78.64;100182.00;1084287;54;19973;-75
2022/07/21 03:01:39;;;;;;;;;;;;;;;21.05;78.76;100182.63;1084387;54;19977;-73
2022/07/21 03:02:40;;;;;;;;;;;;;;;21.03;78.63;100177.41;1084278;54;19947;-75
2022/07/21 03:03:44;;;;;;;;;;;;;;;21.17;78.00;100172.81;1085248;54;20441;-72
2022/07/21 03:04:45;;;;;;;;;;;;;;;21.18;77.82;100184.50;1085480;54;19973;-73
2022/07/21 03:05:49;;;;;;;;;;;;;;;21.19;78.18;100178.00;1085166;54;19954;-76
2022/07/21 03:06:50;;;;;;;;;;;;;;;21.22;77.65;100179.47;1085207;54;20038;-73
2022/07/21 03:07:54;;;;;;;;;;;;;;;21.21;77.27;100184.09;1085441;54;19954;-75
2022/07/21 03:08:57;;;;;;;;;;;;;;;21.11;77.79;100183.69;1083524;54;19973;-74
2022/07/21 03:10:01;;;;;;;;;;;;;;;21.14;77.83;100183.25;1083351;54;20464;-77
2022/07/21 03:11:03;;;;;;;;;;;;;;;21.26;77.61;100178.84;1083651;54;19969;-74
2022/07/21 03:12:07;;;;;;;;;;;;;;;21.26;77.35;100176.13;1084018;54;19950;-74
2022/07/21 03:13:09;;;;;;;;;;;;;;;21.23;77.62;100179.28;1083523;54;19947;-74
2022/07/21 03:14:14;;;;;;;;;;;;;;;21.20;77.40;100182.41;1083510;54;19954;-74
2022/07/21 03:15:15;;;;;;;;;;;;;;;21.14;77.36;100177.84;1082966;54;19985;-74
2022/07/21 03:16:19;;;;;;;;;;;;;;;21.21;77.38;100181.38;1083503;54;19939;-74
2022/07/21 03:17:20;;;;;;;;;;;;;;;21.32;76.92;100183.44;1083267;39;20364;-74
2022/07/21 03:18:24;;;;;;;;;;;;;;;21.27;76.80;100187.84;1083313;54;19950;-75
2022/07/21 03:19:25;;;;;;;;;;;;;;;21.18;77.42;100179.06;1083576;54;19958;-75
2022/07/21 03:20:29;;;;;;;;;;;;;;;21.16;77.56;100194.78;1083190;54;20460;-74
2022/07/21 03:21:30;;;;;;;;;;;;;;;21.12;77.93;100193.50;1083545;39;20356;-74
2022/07/21 03:22:34;;;;;;;;;;;;;;;21.08;78.02;100190.38;1083003;54;19984;-73
2022/07/21 03:23:35;;;;;;;;;;;;;;;21.15;77.91;100184.94;1083099;54;19973;-73
2022/07/21 03:24:42;;;;;;;;;;;;;;;21.25;77.20;100190.78;1083003;54;19947;-72
2022/07/21 03:25:43;;;;;;;;;;;;;;;21.23;77.61;100192.88;1083988;39;20352;-73
2022/07/21 03:26:46;;;;;;;;;;;;;;;21.11;77.77;100195.38;1083386;54;19950;-72
2022/07/21 03:27:48;;;;;;;;;;;;;;;21.13;77.78;100190.56;1083466;54;19954;-75
2022/07/21 03:28:52;;;;;;;;;;;;;;;21.24;77.45;100188.25;1083775;54;19977;-73
2022/07/21 03:29:53;;;;;;;;;;;;;;;21.29;76.84;100186.56;1083060;54;19969;-73
2022/07/21 03:30:56;;;;;;;;;;;;;;;21.15;77.35;100184.94;1083478;54;19977;-74
2022/07/21 03:31:57;;;;;;;;;;;;;;;21.10;77.87;100182.00;1082958;54;19946;-73
2022/07/21 03:33:01;;;;;;;;;;;;;;;21.08;77.57;100182.22;1082627;54;19969;-73
2022/07/21 03:34:02;;;;;;;;;;;;;;;21.14;77.85;100188.69;1083499;39;20341;-73
2022/07/21 03:35:07;;;;;;;;;;;;;;;21.13;77.79;100197.91;1082886;54;19950;-72
2022/07/21 03:36:11;;;;;;;;;;;;;;;21.01;77.74;100193.09;1083141;54;19947;-74
2022/07/21 03:37:12;;;;;;;;;;;;;;;21.01;77.86;100198.53;1083663;39;20231;-73
2022/07/21 03:38:16;;;;;;;;;;;;;;;21.07;77.82;100193.28;1083186;54;19946;-73
2022/07/21 03:39:17;;;;;;;;;;;;;;;20.98;78.06;100190.78;1083521;54;20468;-73
2022/07/21 03:40:25;;;;;;;;;;;;;;;20.96;78.41;100197.47;1083064;54;19958;-73
2022/07/21 03:41:26;;;;;;;;;;;;;;;20.97;78.00;100197.25;1083201;54;19950;-74
2022/07/21 03:42:35;;;;;;;;;;;;;;;21.01;77.96;100198.53;1083116;54;19969;-73
2022/07/21 03:43:47;;;;;;;;;;;;;;;21.03;78.02;100201.88;1082602;54;19958;-74
2022/07/21 03:44:52;;;;;;;;;;;;;;;21.07;78.01;100196.00;1082413;54;19947;-72
2022/07/21 03:45:56;;;;;;;;;;;;;;;21.08;77.74;100197.69;1082635;54;19947;-73
2022/07/21 03:46:59;;;;;;;;;;;;;;;21.03;78.21;100207.31;1082972;54;19946;-73
2022/07/21 03:48:04;;;;;;;;;;;;;;;20.99;78.54;100211.47;1082652;54;19946;-72
2022/07/21 03:49:05;;;;;;;;;;;;;;;20.94;78.52;100205.00;1086164;54;19946;-77
2022/07/21 03:50:11;;;;;;;;;;;;;;;20.95;78.46;100199.38;1086592;54;19969;-78
2022/07/21 03:51:15;;;;;;;;;;;;;;;21.01;78.36;100212.13;1086471;54;19947;-78
2022/07/21 03:52:16;;;;;;;;;;;;;;;21.11;78.03;100208.13;1086767;54;19954;-78
2022/07/21 03:53:20;;;;;;;;;;;;;;;21.04;77.98;100209.00;1086745;54;20906;-77
2022/07/21 03:54:21;;;;;;;;;;;;;;;21.14;78.16;100199.56;1087542;54;19943;-76
2022/07/21 03:55:27;;;;;;;;;;;;;;;21.15;77.55;100201.25;1087748;54;19950;-77
2022/07/21 03:56:29;;;;;;;;;;;;;;;21.10;77.98;100201.03;1087553;54;19944;-75
2022/07/21 03:57:32;;;;;;;;;;;;;;;21.06;77.70;100202.50;1089204;46;19942;-76
2022/07/21 03:58:34;;;;;;;;;;;;;;;21.04;77.77;100205.41;1087785;54;19942;-75
2022/07/21 03:59:37;;;;;;;;;;;;;;;20.99;78.33;100202.50;1088740;39;20201;-76
2022/07/21 04:00:42;;;;;;;;;;;;;;;20.92;78.59;100197.06;1087726;54;19943;-76
2022/07/21 04:01:43;;;;;;;;;;;;;;;20.93;78.52;100203.31;1087777;54;19950;-76
2022/07/21 04:02:47;;;;;;;;;;;;;;;20.93;78.30;100203.31;1087844;54;19947;-76
2022/07/21 04:03:48;;;;;;;;;;;;;;;20.97;78.59;100210.03;1087929;54;19943;-75
2022/07/21 04:04:52;;;;;;;;;;;;;;;20.96;78.50;100203.78;1087784;54;19942;-77
2022/07/21 04:05:55;;;;;;;;;;;;;;;20.98;78.19;100206.28;1087830;54;19939;-76
2022/07/21 04:06:56;;;;;;;;;;;;;;;21.07;78.12;100207.72;1087847;54;19942;-75
2022/07/21 04:08:00;;;;;;;;;;;;;;;21.01;78.11;100212.13;1087877;54;19942;-78
2022/07/21 04:09:01;;;;;;;;;;;;;;;21.03;78.28;100209.19;1088426;46;19966;-77
2022/07/21 04:10:07;;;;;;;;;;;;;;;21.00;78.18;100209.63;1087926;54;19950;-76
2022/07/21 04:11:11;;;;;;;;;;;;;;;20.96;78.31;100209.19;1087839;54;20663;-77
2022/07/21 04:12:16;;;;;;;;;;;;;;;20.94;78.81;100210.44;1087789;54;19950;-76
2022/07/21 04:13:19;;;;;;;;;;;;;;;20.94;78.64;100205.84;1087894;54;19934;-77
2022/07/21 04:14:21;;;;;;;;;;;;;;;20.97;78.40;100210.03;1089459;46;19946;-77
2022/07/21 04:15:25;;;;;;;;;;;;;;;21.02;78.13;100202.06;1087791;54;20626;-77
2022/07/21 04:16:26;;;;;;;;;;;;;;;21.00;78.35;100207.72;1087904;46;19978;-77
2022/07/21 04:17:30;;;;;;;;;;;;;;;21.02;78.54;100207.50;1087804;54;20558;-76
2022/07/21 04:18:34;;;;;;;;;;;;;;;20.93;78.97;100208.75;1087925;47;19943;-75
2022/07/21 04:19:35;;;;;;;;;;;;;;;21.00;78.74;100205.00;1087841;54;19978;-75
2022/07/21 04:20:39;;;;;;;;;;;;;;;21.04;78.41;100209.00;1087842;54;19943;-76
2022/07/21 04:21:40;;;;;;;;;;;;;;;21.07;78.20;100205.00;1087692;54;19949;-76
2022/07/21 04:22:44;;;;;;;;;;;;;;;21.06;78.09;100207.94;1088898;46;19987;-78
2022/07/21 04:23:45;;;;;;;;;;;;;;;21.16;77.42;100209.19;1087726;54;19957;-75
2022/07/21 04:24:49;;;;;;;;;;;;;;;21.16;77.76;100213.78;1087804;54;19943;-75
2022/07/21 04:25:50;;;;;;;;;;;;;;;21.17;77.70;100215.44;1087705;54;19950;-76
2022/07/21 04:26:57;;;;;;;;;;;;;;;21.18;77.85;100217.13;1087633;54;20045;-75
2022/07/21 04:27:58;;;;;;;;;;;;;;;21.25;77.39;100206.25;1087614;54;19943;-75
2022/07/21 04:29:02;;;;;;;;;;;;;;;21.24;77.23;100212.72;1087755;54;19999;-76
2022/07/21 04:30:04;;;;;;;;;;;;;;;21.15;77.63;100215.66;1087729;54;19950;-76
2022/07/21 04:31:08;;;;;;;;;;;;;;;21.13;77.52;100214.19;1087682;54;19946;-75
2022/07/21 04:32:09;;;;;;;;;;;;;;;21.02;78.39;100212.94;1087687;54;19962;-76
2022/07/21 04:33:13;;;;;;;;;;;;;;;21.08;78.15;100213.97;1087856;54;19943;-75
2022/07/21 04:34:14;;;;;;;;;;;;;;;21.03;78.29;100223.63;1087697;54;19958;-76
2022/07/21 04:35:18;;;;;;;;;;;;;;;21.18;77.85;100219.84;1087774;54;20004;-76
2022/07/21 04:36:19;;;;;;;;;;;;;;;21.16;77.71;100224.66;1087715;54;19946;-76
2022/07/21 04:37:23;;;;;;;;;;;;;;;21.19;77.82;100224.22;1087787;54;19926;-76
2022/07/21 04:38:24;;;;;;;;;;;;;;;21.06;77.89;100224.25;1087774;54;19943;-76
2022/07/21 04:39:28;;;;;;;;;;;;;;;20.98;78.26;100217.97;1087861;54;19981;-76
2022/07/21 04:40:29;;;;;;;;;;;;;;;21.04;78.51;100230.72;1087653;54;19966;-77
2022/07/21 04:41:34;;;;;;;;;;;;;;;21.07;77.88;100226.75;1087724;54;19942;-76
2022/07/21 04:42:39;;;;;;;;;;;;;;;21.07;78.29;100231.31;1087586;54;19977;-75
2022/07/21 04:43:43;;;;;;;;;;;;;;;20.99;78.76;100238.66;1087702;54;19950;-78
2022/07/21 04:44:44;;;;;;;;;;;;;;;21.04;78.64;100233.44;1087537;54;19941;-76
2022/07/21 04:45:48;;;;;;;;;;;;;;;21.07;78.36;100236.75;1087850;54;19947;-77
2022/07/21 04:46:49;;;;;;;;;;;;;;;21.02;78.35;100237.41;1087541;54;19946;-76
2022/07/21 04:47:54;;;;;;;;;;;;;;;21.03;78.55;100245.34;1087773;54;19987;-75
2022/07/21 04:48:55;;;;;;;;;;;;;;;21.07;78.44;100237.63;1087759;54;19942;-75
2022/07/21 04:49:59;;;;;;;;;;;;;;;21.10;78.05;100242.66;1087654;54;19943;-75
2022/07/21 04:51:00;;;;;;;;;;;;;;;21.14;77.81;100240.34;1087674;54;19950;-75
2022/07/21 04:52:03;;;;;;;;;;;;;;;21.12;77.98;100245.16;1089722;39;20729;-76
2022/07/21 04:53:08;;;;;;;;;;;;;;;21.17;77.70;100242.63;1087563;54;19947;-75
2022/07/21 04:54:13;;;;;;;;;;;;;;;21.16;77.66;100238.25;1087202;54;19962;-76
2022/07/21 04:55:17;;;;;;;;;;;;;;;21.08;78.02;100230.28;1088017;47;19943;-77
2022/07/21 04:56:18;;;;;;;;;;;;;;;21.02;78.07;100229.25;1088079;54;19946;-76
2022/07/21 04:57:22;;;;;;;;;;;;;;;21.07;78.33;100232.19;1088181;54;19951;-77
2022/07/21 04:58:26;;;;;;;;;;;;;;;21.23;77.65;100224.63;1087979;54;19939;-75
2022/07/21 04:59:29;;;;;;;;;;;;;;;21.30;77.05;100231.75;1087762;54;19947;-76
2022/07/21 05:00:30;;;;;;;;;;;;;;;21.33;76.82;100225.91;1087729;54;19950;-74
2022/07/21 05:01:34;;;;;;;;;;;;;;;21.43;76.30;100233.59;1087693;46;19961;-75
2022/07/21 05:02:35;;;;;;;;;;;;;;;21.45;76.10;100236.09;1087665;54;19954;-75
2022/07/21 05:03:39;;;;;;;;;;;;;;;21.34;76.56;100240.31;1089013;39;20439;-77
2022/07/21 05:04:40;;;;;;;;;;;;;;;21.38;76.50;100238.84;1091131;39;20439;-76
2022/07/21 05:05:44;;;;;;;;;;;;;;;21.47;76.39;100239.44;1087730;54;19965;-76
2022/07/21 05:06:45;;;;;;;;;;;;;;;21.53;75.83;100243.22;1087738;54;19949;-75
2022/07/21 05:07:49;;;;;;;;;;;;;;;21.37;76.32;100236.31;1087724;54;19943;-75
2022/07/21 05:08:50;;;;;;;;;;;;;;;21.29;76.83;100242.84;1087654;54;19942;-75
2022/07/21 05:09:54;;;;;;;;;;;;;;;21.40;76.84;100250.34;1089699;39;20491;-76
2022/07/21 05:10:55;;;;;;;;;;;;;;;21.32;76.98;100256.84;1087626;54;19967;-77
2022/07/21 05:11:59;;;;;;;;;;;;;;;21.27;77.25;100244.94;1087691;54;19942;-77
2022/07/21 05:13:00;;;;;;;;;;;;;;;21.23;77.79;100246.38;1087574;54;19954;-74
2022/07/21 05:14:07;;;;;;;;;;;;;;;21.20;77.74;100250.38;1091525;39;20587;-75
2022/07/21 05:15:09;;;;;;;;;;;;;;;21.23;77.80;100251.81;1087643;54;19951;-75
2022/07/21 05:16:12;;;;;;;;;;;;;;;21.28;77.38;100249.31;1087541;54;19943;-76
2022/07/21 05:17:13;;;;;;;;;;;;;;;21.43;76.99;100240.94;1087660;54;19943;-76
2022/07/21 05:18:17;;;;;;;;;;;;;;;21.56;76.18;100240.91;1087737;54;19944;-77
2022/07/21 05:19:18;;;;;;;;;;;;;;;21.62;76.01;100234.66;1087894;47;19943;-75
2022/07/21 05:20:22;;;;;;;;;;;;;;;21.65;75.56;100250.53;1087741;54;19942;-75
2022/07/21 05:21:23;;;;;;;;;;;;;;;21.71;75.30;100246.13;1087628;54;19974;-75
2022/07/21 05:22:27;;;;;;;;;;;;;;;21.76;75.27;100246.34;1087701;54;19946;-77
2022/07/21 05:23:28;;;;;;;;;;;;;;;21.68;75.64;100243.00;1088440;47;19959;-77
2022/07/21 05:25:50;;;;;;;;;;;;;;;21.64;76.03;100243.41;1087668;54;19998;-76
2022/07/21 05:26:52;;;;;;;;;;;;;;;21.60;75.73;100239.47;1087681;54;19942;-74
2022/07/21 05:27:55;;;;;;;;;;;;;;;21.53;75.97;100241.34;1088084;46;19966;-76
2022/07/21 05:28:57;;;;;;;;;;;;;;;21.55;75.94;100241.94;1088753;47;19947;-75
2022/07/21 05:30:03;;;;;;;;;;;;;;;21.43;76.46;100247.19;1087704;54;19942;-76
2022/07/21 05:31:04;;;;;;;;;;;;;;;21.49;76.25;100245.53;1087555;54;19947;-76
2022/07/21 05:32:08;;;;;;;;;;;;;;;21.60;76.04;100244.06;1087519;54;19966;-75
2022/07/21 05:33:09;;;;;;;;;;;;;;;21.68;75.56;100243.00;1087670;54;19951;-76
2022/07/21 05:34:13;;;;;;;;;;;;;;;21.64;75.42;100242.59;1088513;47;19999;-76
2022/07/21 05:35:15;;;;;;;;;;;;;;;21.66;75.22;100245.94;1087612;54;19942;-75
2022/07/21 05:36:18;;;;;;;;;;;;;;;21.60;75.50;100247.63;1087341;54;19943;-77
2022/07/21 05:37:20;;;;;;;;;;;;;;;21.69;75.35;100241.94;1087611;54;19957;-75
2022/07/21 05:38:23;;;;;;;;;;;;;;;21.77;74.72;100247.16;1087538;54;20027;-76
2022/07/21 05:39:25;;;;;;;;;;;;;;;21.59;75.27;100251.38;1087563;54;20483;-77
2022/07/21 05:40:28;;;;;;;;;;;;;;;21.49;75.65;100245.53;1087666;54;20631;-76
2022/07/21 05:41:29;;;;;;;;;;;;;;;21.50;75.40;100250.75;1088014;54;19942;-76
2022/07/21 05:42:33;;;;;;;;;;;;;;;21.57;75.14;100248.00;1087873;54;20584;-75
2022/07/21 05:43:34;;;;;;;;;;;;;;;21.47;75.85;100253.91;1087980;54;19950;-76
2022/07/21 05:44:38;;;;;;;;;;;;;;;21.35;75.87;100255.56;1087966;54;19957;-76
2022/07/21 05:45:42;;;;;;;;;;;;;;;21.32;76.50;100251.41;1088054;54;19950;-76
2022/07/21 05:46:45;;;;;;;;;;;;;;;21.34;76.48;100257.47;1087970;54;19943;-77
2022/07/21 05:47:47;;;;;;;;;;;;;;;21.38;76.44;100259.75;1087903;54;19967;-77
2022/07/21 05:48:50;;;;;;;;;;;;;;;21.44;75.75;100262.47;1087931;54;19962;-76
2022/07/21 05:49:54;;;;;;;;;;;;;;;21.37;76.06;100264.38;1087965;54;19967;-76
2022/07/21 05:50:58;;;;;;;;;;;;;;;21.41;76.05;100259.34;1088026;54;19943;-76
2022/07/21 05:52:02;;;;;;;;;;;;;;;21.46;76.23;100264.97;1088064;54;20061;-77
2022/07/21 05:53:07;;;;;;;;;;;;;;;21.46;76.23;100262.25;1087801;54;19950;-75
2022/07/21 05:54:08;;;;;;;;;;;;;;;21.46;76.06;100262.25;1087891;54;19926;-75
2022/07/21 05:55:12;;;;;;;;;;;;;;;21.52;75.78;100261.41;1087852;54;19990;-77
2022/07/21 05:56:13;;;;;;;;;;;;;;;21.62;75.81;100261.84;1087951;54;19950;-76
2022/07/21 05:57:17;;;;;;;;;;;;;;;21.69;74.46;100258.28;1088730;39;20562;-77
2022/07/21 05:58:23;;;;;;;;;;;;;;;21.69;74.04;100261.81;1088146;47;20002;-77
2022/07/21 05:59:27;;;;;;;;;;;;;;;21.65;73.65;100266.84;1088044;54;19950;-75
2022/07/21 06:00:28;;;;;;;;;;;;;;;21.58;74.18;100266.03;1088087;47;19950;-76
2022/07/21 06:01:35;;;;;;;;;;;;;;;21.51;74.57;100273.34;1087992;54;20015;-75
2022/07/21 06:02:38;;;;;;;;;;;;;;;21.65;74.10;100272.28;1088099;54;19941;-75
2022/07/21 06:03:40;;;;;;;;;;;;;;;21.71;73.67;100270.59;1088053;54;19950;-76
2022/07/21 06:04:44;;;;;;;;;;;;;;;21.72;73.35;100271.47;1088736;46;19949;-75
2022/07/21 06:05:45;;;;;;;;;;;;;;;21.78;72.57;100276.03;1088315;54;19938;-76
2022/07/21 06:06:49;;;;;;;;;;;;;;;21.85;72.11;100278.75;1088305;54;19943;-76
2022/07/21 06:07:50;;;;;;;;;;;;;;;21.78;72.17;100276.03;1088357;54;19947;-77
2022/07/21 06:08:55;;;;;;;;;;;;;;;21.90;72.05;100281.66;1092410;46;19949;-76
2022/07/21 06:10:00;;;;;;;;;;;;;;;21.81;71.83;100275.63;1088554;54;19939;-74
2022/07/21 06:11:01;;;;;;;;;;;;;;;21.80;71.83;100280.22;1088383;54;19938;-76
2022/07/21 06:12:05;;;;;;;;;;;;;;;21.79;72.14;100266.81;1089786;46;19923;-76
2022/07/21 06:13:09;;;;;;;;;;;;;;;21.83;72.16;100273.50;1089620;46;19939;-75
2022/07/21 06:14:10;;;;;;;;;;;;;;;21.96;71.74;100278.09;1089117;46;19938;-74
2022/07/21 06:15:14;;;;;;;;;;;;;;;22.10;71.61;100276.16;1088328;54;19945;-74
2022/07/21 06:16:15;;;;;;;;;;;;;;;21.96;71.53;100268.03;1091963;46;19970;-75
2022/07/21 06:17:22;;;;;;;;;;;;;;;21.97;71.81;100277.00;1088381;46;19962;-75
2022/07/21 06:18:23;;;;;;;;;;;;;;;22.05;71.14;100270.50;1088425;54;19938;-77
2022/07/21 06:19:27;;;;;;;;;;;;;;;22.10;71.37;100263.38;1089001;46;19939;-78
2022/07/21 06:20:28;;;;;;;;;;;;;;;22.23;70.85;100262.47;1088428;54;19946;-77
2022/07/21 06:21:31;;;;;;;;;;;;;;;22.26;70.80;100274.81;1088506;54;19929;-79
2022/07/21 06:22:33;;;;;;;;;;;;;;;22.24;70.77;100272.31;1088653;54;19950;-78
2022/07/21 06:23:36;;;;;;;;;;;;;;;22.16;70.91;100271.72;1092474;46;19958;-78
2022/07/21 06:24:37;;;;;;;;;;;;;;;22.16;70.81;100279.88;1088535;47;19926;-80
2022/07/21 06:25:41;;;;;;;;;;;;;;;22.22;70.35;100271.69;1088788;39;20821;-79
2022/07/21 06:26:42;;;;;;;;;;;;;;;22.20;70.41;100273.78;1088393;54;19976;-81
2022/07/21 06:27:46;;;;;;;;;;;;;;;22.18;70.08;100275.91;1088233;46;20532;-78
2022/07/21 06:28:47;;;;;;;;;;;;;;;22.18;70.00;100284.06;1088037;54;19939;-77
2022/07/21 06:29:54;;;;;;;;;;;;;;;22.07;70.39;100291.00;1088541;54;19949;-79
2022/07/21 06:30:55;;;;;;;;;;;;;;;22.08;71.08;100286.41;1088735;54;19942;-78
2022/07/21 06:32:01;;;;;;;;;;;;;;;22.02;70.97;100288.09;1088653;54;19954;-78
2022/07/21 06:33:07;;;;;;;;;;;;;;;21.91;71.92;100289.63;1088752;54;19934;-79
2022/07/21 06:34:08;;;;;;;;;;;;;;;22.11;71.21;100288.69;1088757;54;19937;-79
2022/07/21 06:35:21;;;;;;;;;;;;;;;22.14;70.97;100282.81;1088795;54;19942;-80
2022/07/21 06:36:22;;;;;;;;;;;;;;;22.09;71.61;100285.38;1088489;54;19942;-81
2022/07/21 06:37:26;;;;;;;;;;;;;;;21.97;71.53;100293.34;1089093;46;19934;-78
2022/07/21 06:38:31;;;;;;;;;;;;;;;21.93;72.00;100289.38;1087908;54;19938;-80
2022/07/21 06:39:32;;;;;;;;;;;;;;;22.04;71.72;100291.47;1087626;54;20444;-77
2022/07/21 06:40:36;;;;;;;;;;;;;;;22.03;71.49;100287.06;1087621;54;19951;-78
2022/07/21 06:41:37;;;;;;;;;;;;;;;22.18;70.82;100289.53;1087763;54;19962;-81
2022/07/21 06:42:40;;;;;;;;;;;;;;;22.28;70.56;100289.91;1087931;54;19934;-79
2022/07/21 06:43:44;;;;;;;;;;;;;;;22.24;70.75;100285.09;1087703;54;19967;-78
2022/07/21 06:44:45;;;;;;;;;;;;;;;22.15;70.97;100289.13;1087991;54;19950;-80
2022/07/21 06:45:50;;;;;;;;;;;;;;;22.24;71.06;100296.81;1087884;54;19950;-80
2022/07/21 06:46:51;;;;;;;;;;;;;;;22.40;70.36;100283.78;1087299;54;19977;-78
2022/07/21 06:48:01;;;;;;;;;;;;;;;22.40;70.48;100276.47;1087532;54;20791;-81
2022/07/21 06:49:07;;;;;;;;;;;;;;;22.13;71.20;100290.16;1086923;54;19946;-76
2022/07/21 06:50:09;;;;;;;;;;;;;;;22.06;71.25;100283.06;1087584;54;20523;-79
2022/07/21 06:51:12;;;;;;;;;;;;;;;22.07;71.52;100290.19;1087038;54;19951;-77
2022/07/21 06:52:14;;;;;;;;;;;;;;;22.25;70.74;100284.03;1087091;54;19947;-80
2022/07/21 06:53:17;;;;;;;;;;;;;;;22.38;70.31;100277.69;1087754;54;19939;-79
2022/07/21 06:54:19;;;;;;;;;;;;;;;22.36;70.17;100290.69;1087449;54;19951;-78
2022/07/21 06:55:22;;;;;;;;;;;;;;;22.13;70.67;100284.72;1087339;54;20075;-78
2022/07/21 06:56:26;;;;;;;;;;;;;;;22.13;70.36;100284.72;1087516;54;19950;-78
2022/07/21 06:57:27;;;;;;;;;;;;;;;22.15;69.48;100286.41;1087631;54;19942;-78
2022/07/21 06:58:32;;;;;;;;;;;;;;;22.05;69.06;100292.28;1087591;54;19946;-80
2022/07/21 06:59:33;;;;;;;;;;;;;;;22.10;69.05;100285.16;1087540;54;19947;-78
2022/07/21 07:00:37;;;;;;;;;;;;;;;22.12;68.56;100293.94;1087628;54;20642;-79
2022/07/21 07:01:41;;;;;;;;;;;;;;;22.28;68.48;100291.75;1087860;54;19947;-80
2022/07/21 07:02:45;;;;;;;;;;;;;;;22.35;68.62;100289.84;1087814;54;19943;-81
2022/07/21 07:03:46;;;;;;;;;;;;;;;22.42;68.00;100289.84;1087531;54;19975;-81
2022/07/21 07:04:52;;;;;;;;;;;;;;;22.47;67.90;100290.03;1087841;54;19946;-78
2022/07/21 07:05:56;;;;;;;;;;;;;;;22.61;67.26;100290.81;1087954;54;19957;-78
2022/07/21 07:06:57;;;;;;;;;;;;;;;22.64;67.19;100284.91;1087434;54;19975;-81
2022/07/21 07:08:01;;;;;;;;;;;;;;;22.54;66.30;100288.13;1087680;54;19970;-78
2022/07/21 07:09:05;;;;;;;;;;;;;;;22.54;66.67;100290.84;1087830;54;19942;-79
2022/07/21 07:10:06;;;;;;;;;;;;;;;22.68;66.08;100290.75;1088203;54;19949;-78
2022/07/21 07:11:10;;;;;;;;;;;;;;;22.76;65.84;100287.78;1087809;54;19958;-80
2022/07/21 07:12:11;;;;;;;;;;;;;;;22.67;65.67;100284.47;1087658;54;19942;-79
2022/07/21 07:13:17;;;;;;;;;;;;;;;22.84;65.46;100281.22;1087842;54;19962;-78
2022/07/21 07:14:21;;;;;;;;;;;;;;;22.98;65.09;100281.94;1087932;54;19971;-78
2022/07/21 07:15:25;;;;;;;;;;;;;;;23.05;64.39;100280.00;1087575;54;19946;-79
2022/07/21 07:16:26;;;;;;;;;;;;;;;23.15;64.04;100282.25;1087994;54;19946;-77
2022/07/21 07:17:30;;;;;;;;;;;;;;;23.21;64.03;100282.22;1088098;54;19950;-78
2022/07/21 07:18:36;;;;;;;;;;;;;;;23.13;63.62;100282.47;1087918;54;19946;-78
2022/07/21 07:19:37;;;;;;;;;;;;;;;23.11;63.69;100279.13;1088642;39;20001;-78
2022/07/21 07:20:43;;;;;;;;;;;;;;;22.95;63.58;100283.22;1087468;54;20032;-77
2022/07/21 07:21:45;;;;;;;;;;;;;;;22.77;63.58;100289.44;1087414;54;19951;-77
2022/07/21 07:22:49;;;;;;;;;;;;;;;22.80;63.53;100283.53;1090009;39;20407;-79
2022/07/21 07:23:50;;;;;;;;;;;;;;;22.75;63.50;100291.56;1088442;54;19943;-79
2022/07/21 07:24:53;;;;;;;;;;;;;;;22.73;64.46;100288.22;1088457;54;19942;-80